Etusivu
METAR-TAF:

METAR-TAF

Lentoasemat :

Senoun kansainvälinen lentoasema

Bamako, Mali

Leveyspiiri: 12-32N, Pituuspiiri: 007-57W, korkeus merenpinnasta: 380 m

Tämänhetkinen sää

Tämä raportti tehtiin 32 minuuttia sitten, kello 09.30 UTC
Tuuli 8 kn idästä, vaihdellen koillisen ja idän/kaakon välillä
Lämpötila 28°C
Kosteus 22%
Ilmanpaine 1014 hPa
Näkyvyys: 8000 m

METAR: GABS 130930Z 09008KT 050V110 8000 NSC 28/04 Q1014 NOSIG

Aika: 10:02 (10:02 UTC)

Sääennuste

Tämä raportti tehtiin 4 tuntia ja 42 minuuttia sitten, kello 05.20 UTC
Ennuste voimassa 13. päivästä klo 06 UTC - 14. päivään klo 12 UTC
Tuuli 8 kn idästä/koillisesta
Näkyvyys: 8000 m

TAF: GABS 130520Z 1306/1412 07008KT 8000 NSC

Säähavainnot ja -ennusteet yli 4000 lentoasemalta (METAR- ja TAF-raportit).

Käytössä olevat sääasemat on merkitty karttaan keltaisilla ja punaisilla pisteillä.

Aseta hiiri pisteen päälle nähdäksesi sääaseman nimen.

Klikkaa sitten nähdäksesi säähavainnot ja -ennusteet.

Kartan vaihtaminen: klikkaa mustalla rastilla varustettuja vihreitä pisteitä, niin voit zoomata sisään; viivalla varustettua vihreää pistettä, niin voit zoomata ulos tai vihreitä nuolia, niin pääset viereisille kartoille.


METAR-TAF: